• Join FlightAware (Why Join?)
  • Login
  • US Flag 
04:41PM EST


 

Airport Tracker/Info


-or-


 

Live Flight TrackerFlight Track Log ✈ MTN7105 ✈ 24-Jun-2013 ✈ TAPA / ANU - TJSJ / SJU

Flight Track Log - Related Links

Times and Time Zones

All times are in EDT time to prevent confusion due to time zone crossing. See the MTN7105 flight status page for this flight to view local times or setup timezone preferences in your user account.

Time Position Orientation Groundspeed Altitude Reporting Facility
EDT Latitude Longitude Course Direction KTS MPH feet Rate Location/Type
05:24PM 17.1403 -61.8348 275° West  Level FlightAware Approximate
05:25PM 17.1444 -61.8833 275° West  Level FlightAware Approximate
05:26PM 17.1485 -61.9319 275° West  Level FlightAware Approximate
05:27PM 17.1504 -61.9518 282° West  Level FlightAware Approximate
05:28PM 17.1599 -61.9995 282° West  Level FlightAware Approximate
05:29PM 17.1695 -62.0473 282° West  Level FlightAware Approximate
05:30PM 17.1790 -62.0950 282° West  Level FlightAware Approximate
05:31PM 17.1898 -62.1424 285° West  Level FlightAware Approximate
05:32PM 17.2012 -62.1897 281° West  Level FlightAware Approximate
05:33PM 17.2101 -62.2375 281° West  Level FlightAware Approximate
05:34PM 17.2190 -62.2854 281° West  Level FlightAware Approximate
05:35PM 17.2278 -62.3333 281° West  Level FlightAware Approximate
05:36PM 17.2367 -62.3812 281° West  Level FlightAware Approximate
05:36PM 17.2500 -62.5833 281° West 240 276 10,000  Level San Juan Center
05:37PM 17.2455 -62.4291 281° West  Level FlightAware Approximate
05:37PM 17.2500 -62.6500 270° West 320 368 10,000  Level San Juan Center
05:38PM 17.2543 -62.4770 281° West  Level FlightAware Approximate
05:38PM 17.2667 -62.6833 298° West 170 196 10,000  Level San Juan Center
05:39PM 17.2632 -62.5249 281° West  Level FlightAware Approximate
05:39PM 17.2833 -62.7333 289° West 170 196 10,000  Level San Juan Center
05:40PM 17.2720 -62.5728 281° West  Level FlightAware Approximate
05:40PM 17.2833 -62.7833 270° West 170 196 10,000  Level San Juan Center
05:41PM 17.2808 -62.6207 281° West  Level FlightAware Approximate
05:42PM 17.3031 -62.8476 288° West  Level FlightAware Approximate
05:43PM 17.3167 -62.9167 288° West 200 230 10,000  Level San Juan Center
05:44PM 17.3333 -62.9667 289° West 170 196 10,000  Level San Juan Center
05:45PM 17.3500 -63.0167 289° West 180 207 10,000  Level San Juan Center
05:46PM 17.3500 -63.0667 270° West 170 196 10,000  Level San Juan Center
05:47PM 17.3667 -63.1167 289° West 170 196 10,000  Level San Juan Center
05:48PM 17.3833 -63.1667 289° West 170 196 10,000  Level San Juan Center
05:49PM 17.3833 -63.2167 270° West 170 196 10,000  Level San Juan Center
05:50PM 17.4000 -63.2667 289° West 180 207 10,000  Level San Juan Center
05:51PM 17.4167 -63.3167 289° West 180 207 10,000  Level San Juan Center
05:52PM 17.4333 -63.3500 298° West 170 196 10,000  Level San Juan Center
05:53PM 17.4333 -63.4167 270° West 180 207 10,000  Level San Juan Center
05:54PM 17.4500 -63.4500 298° West 170 196 10,000  Level San Juan Center
05:57PM 17.4833 -63.6000 283° West 170 196 10,000 -120 Level San Juan Center
05:58PM 17.5000 -63.6667 285° West 240 276 9,700 -360 Descending San Juan Center
05:59PM 17.5000 -63.7167 270° West 190 219 9,300 -540 Descending San Juan Center
06:00PM 17.5167 -63.7667 289° West 190 219 8,700 -660 Descending San Juan Center
06:01PM 17.5333 -63.8167 289° West 190 219 8,000 -360 Descending San Juan Center
06:02PM 17.5333 -63.8833 270° West 190 219 8,000  Level San Juan Center
06:03PM 17.5667 -63.9167 316° Northwest 180 207 8,000  Level San Juan Center
06:04PM 17.5833 -63.9667 289° West 170 196 8,000  Level San Juan Center
06:05PM 17.6000 -64.0167 289° West 170 196 8,000  Level San Juan Center
06:06PM 17.6167 -64.0500 298° West 170 196 8,000  Level San Juan Center
06:07PM 17.6333 -64.1000 289° West 170 196 8,000  Level San Juan Center
06:08PM 17.6667 -64.1500 305° West 170 196 8,000  Level San Juan Center
06:09PM 17.6833 -64.2000 289° West 170 196 8,000  Level San Juan Center
06:10PM 17.7000 -64.2333 298° West 170 196 8,000  Level San Juan Center
06:11PM 17.7167 -64.2833 289° West 170 196 8,000  Level San Juan Center
06:12PM 17.7333 -64.3333 289° West 170 196 8,000  Level San Juan Center
06:13PM 17.7667 -64.3833 305° West 170 196 8,000  Level San Juan Center
06:14PM 17.7833 -64.4333 289° West 180 207 8,000  Level San Juan Center
06:15PM 17.8000 -64.4667 298° West 170 196 8,000  Level San Juan Center
06:16PM 17.8167 -64.5167 289° West 170 196 8,000  Level San Juan Center
06:17PM 17.8333 -64.5667 289° West 170 196 8,000  Level San Juan Center
06:18PM 17.8667 -64.6167 305° West 170 196 8,000  Level San Juan Center
06:19PM 17.8833 -64.6500 298° West 170 196 8,000  Level San Juan Center
06:20PM 17.9000 -64.7000 289° West 160 184 8,000  Level San Juan Center
06:21PM 17.9167 -64.7500 289° West 170 196 8,000  Level San Juan Center
06:22PM 17.9333 -64.7833 298° West 170 196 8,000  Level San Juan Center
06:23PM 17.9500 -64.8333 289° West 170 196 8,000  Level San Juan Center
06:24PM 17.9667 -64.8833 289° West 160 184 8,000  Level San Juan Center
06:25PM 17.9833 -64.9333 289° West 170 196 8,000  Level San Juan Center
06:26PM 18.0167 -64.9667 316° Northwest 170 196 8,000  Level San Juan Center
06:27PM 18.0333 -65.0167 289° West 170 196 8,000  Level San Juan Center
06:28PM 18.0500 -65.0667 289° West 170 196 8,000  Level San Juan Center
06:29PM 18.0667 -65.1000 298° West 170 196 8,000  Level San Juan Center
06:30PM 18.0833 -65.1500 289° West 170 196 8,000  Level San Juan Center
06:31PM 18.0833 -65.2000 270° West 140 161 8,000  Level San Juan Center
06:32PM 18.0500 -65.2167 205° Southwest 160 184 8,000  Level San Juan Center
06:33PM 18.0167 -65.2500 224° Southwest 170 196 8,000  Level San Juan Center
06:34PM 18.0500 -65.3000 305° West 170 196 8,000  Level San Juan Center
06:35PM 18.0833 -65.3333 316° Northwest 170 196 8,000  Level San Juan Center
06:36PM 18.1000 -65.3833 289° West 170 196 8,000  Level San Juan Center
06:37PM 18.1333 -65.4167 316° Northwest 180 207 8,000  Level San Juan Center
06:38PM 18.1500 -65.4667 289° West 170 196 8,000  Level San Juan Center
06:39PM 18.1667 -65.5000 298° West 170 196 8,000  Level San Juan Center
06:40PM 18.2000 -65.5500 305° West 170 196 8,000 -300 Level San Juan Center
06:41PM 18.2333 -65.6000 305° West 180 207 7,500 -540 Descending San Juan Center
06:42PM 18.2500 -65.6500 289° West 180 207 7,000 -540 Descending San Juan Center
06:43PM 18.2833 -65.6833 316° Northwest 180 207 6,500 -540 Descending San Juan Center
06:44PM 18.3000 -65.7333 289° West 190 219 6,000 -300 Descending San Juan Center
06:45PM 18.3333 -65.7833 305° West 170 196 6,000  Level San Juan Center
06:46PM 18.3500 -65.8333 289° West 170 196 6,000 -300 Level San Juan Center
06:47PM 18.3667 -65.8833 289° West 180 207 5,500 -600 Descending San Juan Center
06:48PM 18.3667 -65.9333 270° West 170 196 4,900 -600 Descending San Juan Center
06:49PM 18.3667 -65.9833 270° West 170 196 4,300 -600 Descending San Juan Center
06:50PM 18.3667 -66.0333 270° West 190 219 3,700 -720 Descending San Juan Center
06:51PM 18.3667 -66.0833 270° West 190 219 2,900 -900 Descending San Juan Center
06:52PM 18.4167 -66.1000 342° North 170 196 1,900 -900 Descending San Juan Center
06:53PM 18.4333 -66.0500 71° East 140 161 1,100 -840 Descending San Juan Center
06:54PM 18.4333 -66.0167 90° East 130 150 300 -840 Descending San Juan Center